Huvudsida
METAR-TAF:

METAR-TAF

Flygplatser :

Elkhart-Morton County Airport

Elkhart, Kansas, USA

latitud: 37-00N, longitud: 101-54W, höjd: 1099 m

Aktuellt väderrapport

Denna rapport gjordes för 20 minuter sedan, klockan 23:35 UTC
Vind 23 kt från syd/sydost i byarna ända upp till 32 kt
Temperatur 22°C
Fuktighet 83%
Tryck 1009 hPa
Sikt: 16.1 km
Brutna moln på en höjd av 1700 ft

METAR: KEHA 262335Z AUTO 16023G32KT 10SM BKN017 22/19 A2981 RMK AO2 T02210188

Tid: 18:55 (23:55 UTC)


TAF: saknas

Aktuella väderrapporter och prognoser från 4000 flygplatser (METAR- och TAF-rapporter).

De tillgängliga stationerna syns som gula och röda prickar på kartan.

För musen över prickarna för att se namnen på stationerna.

Klicka sedan för att få väderrapporter och prognoser.

För att ändra kartan: Klicka på de gröna knapparna med ett svart kors på för att zooma in; den gröna knappen med ett streck på för att zooma ut; eller på de gröna pilarna för angränsande kartor.


METAR-TAF: